createdAt,value
2018-03-18T00:02:40.424Z,3.47
2018-03-18T00:08:31.355Z,3.72
2018-03-18T00:14:22.185Z,2.9
2018-03-18T00:20:13.113Z,3.39
2018-03-18T00:26:04.012Z,2.8
2018-03-18T00:31:54.904Z,15.33
2018-03-18T00:37:45.770Z,12.26
2018-03-18T00:43:36.682Z,24.98
2018-03-18T00:49:27.553Z,11.27
2018-03-18T00:55:18.464Z,4.91
2018-03-18T01:01:09.326Z,2.77
2018-03-18T01:07:00.234Z,2.22
2018-03-18T01:12:51.145Z,3.62
2018-03-18T01:18:42.057Z,2.82
2018-03-18T01:24:32.867Z,2.24
2018-03-18T01:30:23.868Z,4.58
2018-03-18T01:36:14.674Z,2.26
2018-03-18T01:42:05.622Z,2.05
2018-03-18T01:47:56.464Z,1.83
2018-03-18T01:53:47.406Z,1.69
2018-03-18T01:59:38.238Z,4.54
2018-03-18T02:05:29.118Z,9.34
2018-03-18T02:11:20.084Z,2.89
2018-03-18T02:17:10.951Z,1.74
2018-03-18T02:23:01.781Z,1.7
2018-03-18T02:28:52.679Z,1.67
2018-03-18T02:34:43.637Z,1.45
2018-03-18T02:40:34.481Z,1.95
2018-03-18T02:46:25.395Z,1.77
2018-03-18T02:52:16.251Z,1.46
2018-03-18T02:58:07.130Z,1.53
2018-03-18T03:03:58.007Z,1.65
2018-03-18T03:09:48.890Z,2.09
2018-03-18T03:15:39.788Z,1.98
2018-03-18T03:21:30.695Z,1.79
2018-03-18T03:27:21.572Z,2.8
2018-03-18T03:33:12.468Z,3.03
2018-03-18T03:39:03.349Z,3.45
2018-03-18T03:44:54.232Z,3.28
2018-03-18T03:50:45.112Z,2.82
2018-03-18T03:56:36.020Z,2.9
2018-03-18T04:02:26.877Z,2.67
2018-03-18T04:08:17.766Z,3.35
2018-03-18T04:14:08.673Z,3.91
2018-03-18T04:19:59.579Z,4.18
2018-03-18T04:25:50.456Z,3.54
2018-03-18T04:31:41.345Z,3.81
2018-03-18T04:37:32.266Z,4.14
2018-03-18T04:43:23.122Z,3.47
2018-03-18T04:49:14.001Z,3.37
2018-03-18T04:55:04.894Z,3.78
2018-03-18T05:00:55.817Z,3.66
2018-03-18T05:06:46.705Z,3.09
2018-03-18T05:12:37.560Z,3.73
2018-03-18T05:18:28.441Z,3.14
2018-03-18T05:24:19.352Z,9.55
2018-03-18T05:30:10.205Z,4.91
2018-03-18T05:36:01.101Z,3.14
2018-03-18T05:41:52.002Z,3.01
2018-03-18T05:47:42.867Z,2.12
2018-03-18T05:53:33.764Z,2.46
2018-03-18T05:59:24.685Z,2.87
2018-03-18T06:05:15.532Z,2.78
2018-03-18T06:11:06.414Z,2
2018-03-18T06:16:57.345Z,2.09
2018-03-18T06:22:48.226Z,1.56
2018-03-18T06:28:39.090Z,10.13
2018-03-18T06:34:29.996Z,1.33
2018-03-18T06:40:20.840Z,1.34
2018-03-18T06:46:11.763Z,1.31
2018-03-18T06:52:02.648Z,1.44
2018-03-18T06:57:53.534Z,1.3
2018-03-18T07:03:44.401Z,1.58
2018-03-18T07:09:35.315Z,1.36
2018-03-18T07:15:26.155Z,1.38
2018-03-18T07:21:17.087Z,1.51
2018-03-18T07:27:07.940Z,2.17
2018-03-18T07:32:58.820Z,1.41
2018-03-18T07:38:49.754Z,1.54
2018-03-18T07:44:40.573Z,1.65
2018-03-18T07:50:31.564Z,1.64
2018-03-18T07:56:22.386Z,2.83
2018-03-18T08:02:13.264Z,1.77
2018-03-18T08:08:04.150Z,39.59
2018-03-18T08:13:55.114Z,37.3
2018-03-18T08:19:45.952Z,34.74
2018-03-18T08:25:36.811Z,34.46
2018-03-18T08:31:27.707Z,27
2018-03-18T08:37:18.617Z,24.69
2018-03-18T08:43:09.502Z,12.96
2018-03-18T08:49:00.387Z,19.56
2018-03-18T08:54:51.240Z,18.1
2018-03-18T09:00:42.180Z,7.89
2018-03-18T09:06:33.059Z,3.67
2018-03-18T09:12:23.921Z,13.2
2018-03-18T09:18:14.814Z,9.04
2018-03-18T09:24:05.743Z,4.06
2018-03-18T09:29:56.591Z,3.6
2018-03-18T09:35:47.490Z,1.3
2018-03-18T09:41:38.374Z,8.16
2018-03-18T09:47:29.239Z,10.07
2018-03-18T09:53:20.230Z,6.12
2018-03-18T09:59:11.060Z,1.27
2018-03-18T10:05:02.011Z,1.59
2018-03-18T10:10:52.837Z,0.98
2018-03-18T10:16:43.745Z,1.64
2018-03-18T10:22:34.631Z,2.03
2018-03-18T10:28:25.540Z,3.34
2018-03-18T10:34:16.434Z,3.21
2018-03-18T10:40:07.354Z,8.96
2018-03-18T10:45:58.204Z,5.16
2018-03-18T10:51:49.162Z,1.86
2018-03-18T10:57:40.005Z,4.55
2018-03-18T11:03:30.878Z,3.14
2018-03-18T11:09:21.778Z,2.35
2018-03-18T11:15:12.681Z,7.84
2018-03-18T11:21:03.554Z,1.26
2018-03-18T11:26:54.448Z,3.03
2018-03-18T11:32:45.341Z,12.24
2018-03-18T11:38:36.320Z,1.45
2018-03-18T11:44:27.176Z,1.82
2018-03-18T11:50:18.010Z,2.91
2018-03-18T11:56:08.904Z,1.68
2018-03-18T12:01:59.870Z,3.2
2018-03-18T12:07:50.706Z,4.07
2018-03-18T12:13:41.608Z,3.07
2018-03-18T12:19:32.506Z,1.14
2018-03-18T12:25:23.374Z,5.26
2018-03-18T12:31:14.321Z,1.58
2018-03-18T12:37:05.260Z,1.04
2018-03-18T12:42:56.065Z,1.27
2018-03-18T12:48:46.991Z,1.45
2018-03-18T12:54:37.923Z,2.7
2018-03-18T13:00:28.780Z,2.26
2018-03-18T13:06:19.640Z,3.79
2018-03-18T13:12:10.561Z,1.16
2018-03-18T13:18:01.407Z,2.15
2018-03-18T13:23:52.324Z,2.12
2018-03-18T13:29:43.188Z,2.2
2018-03-18T13:35:34.123Z,4.13
2018-03-18T13:41:25.043Z,1.38
2018-03-18T13:47:15.890Z,2.91
2018-03-18T13:53:06.790Z,7.03
2018-03-18T13:58:57.665Z,3.92
2018-03-18T14:04:48.548Z,3.41
2018-03-18T14:10:39.433Z,2.7
2018-03-18T14:16:30.352Z,2.74
2018-03-18T14:22:21.234Z,2.51
2018-03-18T14:28:12.154Z,2.46
2018-03-18T14:34:03.029Z,5.91
2018-03-18T14:39:53.911Z,5.94
2018-03-18T14:45:44.838Z,6.57
2018-03-18T14:51:35.721Z,5.86
2018-03-18T14:57:26.629Z,7.39
2018-03-18T15:03:17.509Z,4.38
2018-03-18T15:09:08.406Z,6.36
2018-03-18T15:14:59.339Z,3.83
2018-03-18T15:20:50.218Z,4.66
2018-03-18T15:26:41.098Z,6.45
2018-03-18T15:32:31.982Z,2.83
2018-03-18T15:38:22.878Z,7.36
2018-03-18T15:44:13.854Z,2.05
2018-03-18T15:50:04.640Z,6.28
2018-03-18T15:55:55.637Z,9.54
2018-03-18T16:01:46.463Z,16.85
2018-03-18T16:07:37.362Z,6.04
2018-03-18T16:13:28.236Z,4.22
2018-03-18T16:19:19.125Z,6.69
2018-03-18T16:25:10.023Z,17.24
2018-03-18T16:31:00.918Z,15.59
2018-03-18T16:36:51.794Z,13.39
2018-03-18T16:42:42.714Z,7.44
2018-03-18T16:48:33.606Z,3.63
2018-03-18T16:54:24.496Z,4.02
2018-03-18T17:00:15.382Z,13.81
2018-03-18T17:06:06.272Z,7.09
2018-03-18T17:11:57.160Z,7.53
2018-03-18T17:17:48.107Z,7.21
2018-03-18T17:23:39.027Z,11.02
2018-03-18T17:29:29.993Z,5.71
2018-03-18T17:35:20.776Z,7.17
2018-03-18T17:41:11.708Z,4.53
2018-03-18T17:47:02.571Z,2.27
2018-03-18T17:52:53.516Z,5.02
2018-03-18T17:58:44.407Z,8.24
2018-03-18T18:04:35.315Z,9.88
2018-03-18T18:10:26.193Z,6.89
2018-03-18T18:16:17.054Z,12.67
2018-03-18T18:22:07.946Z,4.05
2018-03-18T18:27:58.850Z,6.05
2018-03-18T18:33:49.743Z,6.19
2018-03-18T18:39:40.612Z,4.88
2018-03-18T18:45:31.532Z,17.6
2018-03-18T18:51:22.414Z,52.54
2018-03-18T18:57:13.325Z,7.78
2018-03-18T19:03:04.272Z,4.56
2018-03-18T19:08:55.145Z,3.19
2018-03-18T19:14:46.032Z,10.26
2018-03-18T19:20:36.847Z,6.13
2018-03-18T19:26:27.764Z,3.67
2018-03-18T19:32:18.677Z,3.11
2018-03-18T19:38:09.582Z,3.03
2018-03-18T19:44:00.505Z,3.29
2018-03-18T19:49:51.404Z,3.6
2018-03-18T19:55:42.227Z,7.24
2018-03-18T20:01:33.098Z,14.89
2018-03-18T20:07:23.999Z,13.89
2018-03-18T20:13:14.930Z,7.81
2018-03-18T20:19:05.786Z,6.7
2018-03-18T20:24:56.686Z,10.04
2018-03-18T20:30:47.574Z,8.13
2018-03-18T20:36:38.546Z,6.4
2018-03-18T20:42:29.406Z,7.69
2018-03-18T20:48:20.226Z,9.1
2018-03-18T20:54:11.195Z,11.13
2018-03-18T21:00:02.067Z,8.72
2018-03-18T21:05:52.899Z,8.96
2018-03-18T21:11:43.832Z,7.6
2018-03-18T21:17:34.760Z,8.02
2018-03-18T21:23:25.605Z,8.05
2018-03-18T21:29:16.490Z,9.16
2018-03-18T21:35:07.377Z,9.18
2018-03-18T21:40:58.307Z,11.38
2018-03-18T21:46:49.186Z,9.88
2018-03-18T21:52:40.091Z,12.01
2018-03-18T21:58:30.959Z,9.98
2018-03-18T22:04:21.857Z,10.25
2018-03-18T22:10:12.771Z,16.31
2018-03-18T22:16:03.685Z,7.49
2018-03-18T22:21:54.548Z,2.94
2018-03-18T22:27:45.432Z,2.24
2018-03-18T22:33:36.321Z,2.08
2018-03-18T22:39:27.220Z,3.46
2018-03-18T22:45:18.128Z,2.18
2018-03-18T22:51:09.088Z,9.24
2018-03-18T22:56:59.912Z,2.04
2018-03-18T23:02:50.794Z,2.69
2018-03-18T23:08:41.710Z,2.91
2018-03-18T23:14:32.616Z,2.5
2018-03-18T23:20:23.469Z,5.79
2018-03-18T23:26:14.441Z,5.42
2018-03-18T23:32:05.316Z,2.42
2018-03-18T23:37:56.143Z,2.99
2018-03-18T23:43:47.158Z,0.91
2018-03-18T23:49:37.966Z,0.62
2018-03-18T23:55:28.882Z,0.75
